Time;durP1;ratioP1;P1;durP2;ratioP2;P2;SDS_P1;SDS_P2;PMS_P1;PMS_P2;Temp;Humidity;BMP_temperature;BMP_pressure;BME280_temperature;BME280_humidity;BME280_pressure;Samples;Min_cycle;Max_cycle;Signal;HPM_P1;HPM_P2
2024/03/28 00:01:07;;;;;;;;;2.00;2.00;;;;;;;;5096810;27;45271;-64
2024/03/28 00:03:32;;;;;;;;;1.33;1.33;;;;;;;;5093651;27;45289;-64
2024/03/28 00:05:58;;;;;;;;;2.00;2.00;;;;;;;;5092989;27;45337;-64
2024/03/28 00:08:24;;;;;;;;;3.33;2.00;;;;;;;;5088465;27;45357;-64
2024/03/28 00:10:49;;;;;;;;;2.00;1.00;;;;;;;;5085437;27;45596;-64
2024/03/28 00:13:15;;;;;;;;;3.00;1.00;;;;;;;;5090222;27;45276;-64
2024/03/28 00:15:40;;;;;;;;;3.00;3.00;;;;;;;;5082160;27;45474;-64
2024/03/28 00:18:06;;;;;;;;;1.00;1.00;;;;;;;;5090628;27;46194;-64
2024/03/28 00:20:31;;;;;;;;;2.00;1.00;;;;;;;;5091653;27;45290;-64
2024/03/28 00:22:56;;;;;;;;;1.67;1.67;;;;;;;;5097574;27;45718;-64
2024/03/28 00:25:21;;;;;;;;;1.00;0.33;;;;;;;;5086120;27;45749;-64
2024/03/28 00:27:46;;;;;;;;;2.67;1.00;;;;;;;;5091199;27;45359;-64
2024/03/28 00:30:12;;;;;;;;;0.67;0.67;;;;;;;;5095164;27;45386;-64
2024/03/28 00:32:37;;;;;;;;;2.00;2.00;;;;;;;;5087679;27;45324;-64
2024/03/28 00:35:02;;;;;;;;;1.00;1.00;;;;;;;;5080477;27;45339;-64
2024/03/28 00:37:27;;;;;;;;;2.00;2.00;;;;;;;;5072807;28;47171;-64
2024/03/28 00:39:52;;;;;;;;;1.00;1.00;;;;;;;;5090056;27;45597;-65
2024/03/28 00:42:18;;;;;;;;;1.00;1.00;;;;;;;;5085210;27;45429;-65
2024/03/28 00:44:43;;;;;;;;;2.00;2.00;;;;;;;;5098358;27;45223;-65
2024/03/28 00:47:08;;;;;;;;;1.00;1.00;;;;;;;;5084418;27;45424;-65
2024/03/28 00:49:33;;;;;;;;;2.00;2.00;;;;;;;;5093272;27;45303;-65
2024/03/28 00:51:58;;;;;;;;;2.00;2.00;;;;;;;;5086863;27;45304;-65
2024/03/28 00:54:23;;;;;;;;;1.00;1.00;;;;;;;;5081282;27;45603;-65
2024/03/28 00:56:49;;;;;;;;;1.00;1.00;;;;;;;;5091877;27;45296;-65
2024/03/28 00:59:14;;;;;;;;;1.00;1.00;;;;;;;;5089011;27;45450;-66
2024/03/28 01:01:39;;;;;;;;;2.00;2.00;;;;;;;;5081115;27;45324;-66
2024/03/28 01:04:04;;;;;;;;;3.00;3.00;;;;;;;;5098571;27;45599;-66
2024/03/28 01:06:29;;;;;;;;;2.67;2.00;;;;;;;;5099372;27;45385;-66
2024/03/28 01:08:54;;;;;;;;;1.33;1.00;;;;;;;;5088222;27;45279;-66
2024/03/28 01:11:19;;;;;;;;;1.00;1.00;;;;;;;;5086813;27;45329;-66
2024/03/28 01:13:45;;;;;;;;;1.33;1.33;;;;;;;;5086102;27;45385;-66
2024/03/28 01:16:10;;;;;;;;;1.00;1.00;;;;;;;;5091559;27;46449;-66
2024/03/28 01:18:35;;;;;;;;;2.00;1.00;;;;;;;;5089873;27;45488;-65
2024/03/28 01:21:03;;;;;;;;;1.00;1.00;;;;;;;;5082684;27;45774;-66
2024/03/28 01:23:30;;;;;;;;;2.00;2.00;;;;;;;;5095478;27;45320;-65
2024/03/28 01:25:56;;;;;;;;;1.00;1.00;;;;;;;;5079583;27;47348;-66
2024/03/28 01:28:21;;;;;;;;;1.00;1.00;;;;;;;;5090533;27;45328;-64
2024/03/28 01:30:46;;;;;;;;;1.00;1.00;;;;;;;;5092936;27;45351;-65
2024/03/28 01:33:11;;;;;;;;;1.00;1.00;;;;;;;;5083456;27;45614;-64
2024/03/28 01:35:36;;;;;;;;;3.00;1.00;;;;;;;;5084244;27;45613;-65
2024/03/28 01:38:01;;;;;;;;;1.00;1.00;;;;;;;;5086582;27;45251;-65
2024/03/28 01:40:26;;;;;;;;;1.00;1.00;;;;;;;;5083172;27;45254;-65
2024/03/28 01:42:52;;;;;;;;;1.00;1.00;;;;;;;;5090245;27;45523;-65
2024/03/28 01:45:17;;;;;;;;;1.00;1.00;;;;;;;;5089967;27;45275;-64
2024/03/28 01:47:42;;;;;;;;;0.00;0.00;;;;;;;;5090507;27;45379;-65
2024/03/28 01:50:08;;;;;;;;;1.00;1.00;;;;;;;;5085971;27;45397;-66
2024/03/28 01:52:33;;;;;;;;;0.67;0.67;;;;;;;;5084162;27;45284;-65
2024/03/28 01:54:58;;;;;;;;;1.00;1.00;;;;;;;;5086534;27;45247;-65
2024/03/28 01:57:24;;;;;;;;;1.67;1.67;;;;;;;;5084075;27;45251;-64
2024/03/28 01:59:50;;;;;;;;;1.00;1.00;;;;;;;;5092657;27;45496;-64
2024/03/28 02:02:19;;;;;;;;;1.00;1.00;;;;;;;;5101482;27;45304;-64
2024/03/28 02:04:44;;;;;;;;;2.00;2.00;;;;;;;;5083336;27;46514;-65
2024/03/28 02:07:09;;;;;;;;;1.00;1.00;;;;;;;;5093475;27;45463;-64
2024/03/28 02:09:34;;;;;;;;;1.00;1.00;;;;;;;;5096589;27;45681;-64
2024/03/28 02:11:59;;;;;;;;;3.00;1.33;;;;;;;;5101620;27;45203;-64
2024/03/28 02:14:24;;;;;;;;;2.67;2.00;;;;;;;;5087865;27;45327;-64
2024/03/28 02:16:50;;;;;;;;;2.00;2.00;;;;;;;;5089640;27;45386;-64
2024/03/28 02:19:15;;;;;;;;;1.00;1.00;;;;;;;;5088197;27;45401;-65
2024/03/28 02:21:43;;;;;;;;;2.00;2.00;;;;;;;;5089907;27;45382;-65
2024/03/28 02:24:09;;;;;;;;;1.00;1.00;;;;;;;;5075834;28;46185;-65
2024/03/28 02:26:34;;;;;;;;;1.00;1.00;;;;;;;;5082236;27;45635;-65
2024/03/28 02:28:59;;;;;;;;;2.67;1.00;;;;;;;;5091137;27;45474;-65
2024/03/28 02:31:24;;;;;;;;;0.00;0.00;;;;;;;;5100997;27;45364;-65
2024/03/28 02:33:49;;;;;;;;;1.00;1.00;;;;;;;;5088750;27;45325;-65
2024/03/28 02:36:14;;;;;;;;;1.00;1.00;;;;;;;;5070833;28;45975;-64
2024/03/28 02:38:40;;;;;;;;;1.00;1.00;;;;;;;;5096351;27;45337;-64
2024/03/28 02:41:05;;;;;;;;;0.00;0.00;;;;;;;;5093682;27;45355;-64
2024/03/28 02:43:31;;;;;;;;;1.00;1.00;;;;;;;;5092647;27;45448;-64
2024/03/28 02:45:56;;;;;;;;;1.00;1.00;;;;;;;;5094296;27;45457;-65
2024/03/28 02:48:21;;;;;;;;;1.00;1.00;;;;;;;;5087763;27;45681;-64
2024/03/28 02:50:46;;;;;;;;;0.00;0.00;;;;;;;;5090462;27;45496;-65
2024/03/28 02:53:12;;;;;;;;;0.33;0.33;;;;;;;;5084618;27;45612;-64
2024/03/28 02:55:37;;;;;;;;;1.00;1.00;;;;;;;;5087741;27;45560;-64
2024/03/28 02:58:02;;;;;;;;;0.00;0.00;;;;;;;;5074110;28;45380;-65
2024/03/28 03:00:27;;;;;;;;;1.00;1.00;;;;;;;;5093061;27;45354;-64
2024/03/28 03:02:52;;;;;;;;;1.00;1.00;;;;;;;;5087121;27;46667;-65
2024/03/28 03:05:19;;;;;;;;;0.00;0.00;;;;;;;;5090193;27;45398;-64
2024/03/28 03:07:44;;;;;;;;;0.00;0.00;;;;;;;;5084645;27;45304;-64
2024/03/28 03:10:09;;;;;;;;;1.00;1.00;;;;;;;;5096221;27;45593;-64
2024/03/28 03:12:34;;;;;;;;;0.00;0.00;;;;;;;;5090774;27;45762;-64
2024/03/28 03:14:59;;;;;;;;;0.00;0.00;;;;;;;;5083699;27;45266;-65
2024/03/28 03:17:25;;;;;;;;;0.00;0.00;;;;;;;;5092193;27;45256;-64
2024/03/28 03:19:53;;;;;;;;;0.00;0.00;;;;;;;;5080572;27;45473;-64
2024/03/28 03:22:19;;;;;;;;;0.00;0.00;;;;;;;;5097141;27;45328;-64
2024/03/28 03:24:44;;;;;;;;;0.00;0.00;;;;;;;;5089294;27;45378;-65
2024/03/28 03:27:16;;;;;;;;;0.00;0.00;;;;;;;;5087482;27;45422;-64
2024/03/28 03:35:12;;;;;;;;;0.00;0.00;;;;;;;;5094052;27;45394;-64
2024/03/28 03:37:37;;;;;;;;;0.00;0.00;;;;;;;;5080998;27;45190;-64
2024/03/28 03:40:05;;;;;;;;;1.00;0.00;;;;;;;;5096482;27;45177;-64
2024/03/28 03:42:30;;;;;;;;;0.00;0.00;;;;;;;;5090559;27;47187;-64
2024/03/28 03:44:55;;;;;;;;;0.00;0.00;;;;;;;;5082477;27;45531;-65
2024/03/28 03:47:21;;;;;;;;;0.00;0.00;;;;;;;;5094150;27;45365;-64
2024/03/28 03:49:46;;;;;;;;;0.00;0.00;;;;;;;;5087570;27;45650;-64
2024/03/28 03:52:11;;;;;;;;;0.00;0.00;;;;;;;;5090935;27;46166;-65
2024/03/28 03:54:40;;;;;;;;;0.00;0.00;;;;;;;;5082387;27;45378;-65
2024/03/28 03:57:05;;;;;;;;;0.00;0.00;;;;;;;;5065675;28;45448;-64
2024/03/28 03:59:31;;;;;;;;;0.00;0.00;;;;;;;;5085487;27;45238;-65
2024/03/28 04:01:57;;;;;;;;;0.00;0.00;;;;;;;;5100474;27;45275;-64
2024/03/28 04:04:22;;;;;;;;;0.00;0.00;;;;;;;;5096817;27;45310;-65
2024/03/28 04:06:47;;;;;;;;;0.00;0.00;;;;;;;;5062664;28;45362;-65
2024/03/28 04:09:13;;;;;;;;;0.00;0.00;;;;;;;;5092662;27;45293;-65
2024/03/28 04:11:38;;;;;;;;;0.00;0.00;;;;;;;;5091157;27;45358;-65
2024/03/28 04:14:04;;;;;;;;;1.00;0.00;;;;;;;;5085819;27;45351;-65
2024/03/28 04:16:29;;;;;;;;;0.00;0.00;;;;;;;;5091302;27;45406;-64
2024/03/28 04:18:54;;;;;;;;;0.00;0.00;;;;;;;;5081666;27;45801;-64
2024/03/28 04:21:19;;;;;;;;;0.00;0.00;;;;;;;;5088396;27;46174;-64
2024/03/28 04:23:44;;;;;;;;;0.00;0.00;;;;;;;;5066131;27;45854;-64
2024/03/28 04:26:10;;;;;;;;;0.00;0.00;;;;;;;;5093531;27;45314;-64
2024/03/28 04:28:35;;;;;;;;;0.00;0.00;;;;;;;;5089286;27;45712;-64
2024/03/28 04:31:00;;;;;;;;;0.00;0.00;;;;;;;;5090396;27;45372;-64
2024/03/28 04:33:25;;;;;;;;;0.00;0.00;;;;;;;;5080360;27;45526;-64
2024/03/28 04:35:50;;;;;;;;;1.00;0.00;;;;;;;;5087159;27;45409;-64
2024/03/28 04:38:15;;;;;;;;;0.00;0.00;;;;;;;;5082280;27;45245;-64
2024/03/28 04:40:41;;;;;;;;;0.00;0.00;;;;;;;;5085866;27;45440;-64
2024/03/28 04:43:06;;;;;;;;;0.00;0.00;;;;;;;;5084956;27;45685;-64
2024/03/28 04:45:31;;;;;;;;;0.00;0.00;;;;;;;;5073251;28;45373;-64
2024/03/28 04:47:57;;;;;;;;;1.00;0.00;;;;;;;;5084925;27;45370;-64
2024/03/28 04:50:22;;;;;;;;;0.00;0.00;;;;;;;;5087813;27;46267;-64
2024/03/28 04:52:47;;;;;;;;;0.33;0.00;;;;;;;;5086727;27;45359;-64
2024/03/28 04:55:13;;;;;;;;;0.00;0.00;;;;;;;;5080575;27;45591;-65
2024/03/28 04:57:38;;;;;;;;;0.00;0.00;;;;;;;;5092915;27;45253;-65
2024/03/28 05:00:08;;;;;;;;;0.00;0.00;;;;;;;;5087517;27;46289;-64
2024/03/28 05:02:33;;;;;;;;;0.00;0.00;;;;;;;;5085661;27;45371;-64
2024/03/28 05:04:58;;;;;;;;;0.00;0.00;;;;;;;;5084543;27;45369;-64
2024/03/28 05:07:23;;;;;;;;;0.00;0.00;;;;;;;;5095994;27;45355;-65
2024/03/28 05:09:49;;;;;;;;;0.00;0.00;;;;;;;;5097530;27;46428;-65
2024/03/28 05:12:14;;;;;;;;;0.00;0.00;;;;;;;;5083345;27;45401;-65
2024/03/28 05:14:39;;;;;;;;;0.00;0.00;;;;;;;;5090182;27;45477;-65
2024/03/28 05:17:06;;;;;;;;;0.00;0.00;;;;;;;;5101573;27;45367;-65
2024/03/28 05:19:31;;;;;;;;;1.33;0.00;;;;;;;;5090569;27;45477;-65
2024/03/28 05:21:56;;;;;;;;;7.33;0.00;;;;;;;;5092550;27;45322;-65
2024/03/28 05:24:21;;;;;;;;;0.33;0.33;;;;;;;;5099603;27;45547;-65
2024/03/28 05:26:46;;;;;;;;;0.00;0.00;;;;;;;;5099650;27;45349;-65
2024/03/28 05:29:12;;;;;;;;;1.00;0.00;;;;;;;;5100104;27;45365;-65
2024/03/28 05:31:37;;;;;;;;;0.00;0.00;;;;;;;;5102412;27;45252;-65
2024/03/28 05:34:02;;;;;;;;;0.00;0.00;;;;;;;;5088364;27;45348;-64
2024/03/28 05:36:27;;;;;;;;;0.00;0.00;;;;;;;;5090886;27;45517;-64
2024/03/28 05:38:53;;;;;;;;;0.00;0.00;;;;;;;;5087947;27;45366;-65
2024/03/28 05:41:18;;;;;;;;;0.00;0.00;;;;;;;;5077914;27;45942;-64
2024/03/28 05:43:43;;;;;;;;;0.00;0.00;;;;;;;;5085034;27;45450;-64
2024/03/28 05:46:08;;;;;;;;;0.00;0.00;;;;;;;;5095375;27;45271;-64
2024/03/28 05:48:33;;;;;;;;;1.00;0.00;;;;;;;;5096163;27;46450;-64
2024/03/28 05:50:59;;;;;;;;;0.00;0.00;;;;;;;;5088453;27;45421;-64
2024/03/28 05:53:24;;;;;;;;;0.67;0.00;;;;;;;;5095294;27;45419;-64
2024/03/28 05:55:49;;;;;;;;;0.00;0.00;;;;;;;;5091326;27;45318;-64
2024/03/28 05:58:14;;;;;;;;;0.00;0.00;;;;;;;;5087253;27;45439;-64
2024/03/28 06:00:39;;;;;;;;;0.00;0.00;;;;;;;;5092310;27;45311;-65
2024/03/28 06:03:04;;;;;;;;;0.00;0.00;;;;;;;;5081493;27;45310;-65
2024/03/28 06:05:30;;;;;;;;;0.00;0.00;;;;;;;;5089818;27;45400;-64
2024/03/28 06:07:55;;;;;;;;;0.00;0.00;;;;;;;;5085116;27;45745;-64
2024/03/28 06:10:21;;;;;;;;;0.00;0.00;;;;;;;;5075027;27;45349;-64
2024/03/28 06:12:46;;;;;;;;;0.00;0.00;;;;;;;;5086533;27;45458;-64
2024/03/28 06:15:11;;;;;;;;;0.00;0.00;;;;;;;;5099964;27;45434;-65
2024/03/28 06:17:36;;;;;;;;;0.00;0.00;;;;;;;;5098127;27;45560;-65
2024/03/28 06:20:02;;;;;;;;;0.00;0.00;;;;;;;;5100314;27;45321;-65
2024/03/28 06:22:28;;;;;;;;;1.00;0.00;;;;;;;;5087530;27;45461;-65
2024/03/28 06:24:53;;;;;;;;;0.00;0.00;;;;;;;;5092597;27;45450;-64
2024/03/28 06:27:18;;;;;;;;;0.00;0.00;;;;;;;;5089255;27;45735;-65
2024/03/28 06:29:49;;;;;;;;;0.00;0.00;;;;;;;;5097835;27;45279;-65
2024/03/28 06:32:24;;;;;;;;;1.00;0.00;;;;;;;;5088981;27;45323;-64
2024/03/28 06:34:52;;;;;;;;;0.00;0.00;;;;;;;;5094750;27;45667;-64
2024/03/28 06:37:18;;;;;;;;;2.00;0.00;;;;;;;;5089748;27;45430;-64
2024/03/28 06:39:44;;;;;;;;;0.67;0.00;;;;;;;;5098690;27;45404;-64
2024/03/28 06:42:09;;;;;;;;;1.00;0.00;;;;;;;;5080907;27;45369;-64
2024/03/28 06:44:34;;;;;;;;;0.00;0.00;;;;;;;;5095368;27;45491;-64
2024/03/28 06:46:59;;;;;;;;;0.00;0.00;;;;;;;;5081373;27;46701;-64
2024/03/28 06:49:24;;;;;;;;;0.00;0.00;;;;;;;;5094440;27;45828;-64
2024/03/28 06:51:50;;;;;;;;;0.00;0.00;;;;;;;;5092634;27;45325;-63
2024/03/28 06:54:15;;;;;;;;;0.00;0.00;;;;;;;;5082940;27;45518;-63
2024/03/28 06:56:40;;;;;;;;;0.00;0.00;;;;;;;;5099534;27;45351;-63
2024/03/28 06:59:05;;;;;;;;;0.00;0.00;;;;;;;;5087845;27;45314;-63
2024/03/28 07:01:30;;;;;;;;;0.00;0.00;;;;;;;;5082845;27;45555;-63
2024/03/28 07:03:55;;;;;;;;;0.00;0.00;;;;;;;;5088834;27;45437;-63
2024/03/28 07:06:21;;;;;;;;;0.00;0.00;;;;;;;;5092633;27;46156;-63
2024/03/28 07:08:48;;;;;;;;;0.00;0.00;;;;;;;;5093908;27;45314;-64
2024/03/28 07:11:13;;;;;;;;;0.00;0.00;;;;;;;;5081443;27;45437;-64
2024/03/28 07:13:38;;;;;;;;;0.00;0.00;;;;;;;;5095481;27;45373;-64
2024/03/28 07:16:04;;;;;;;;;1.00;0.00;;;;;;;;5086181;27;45397;-64
2024/03/28 07:18:29;;;;;;;;;0.00;0.00;;;;;;;;5094190;27;46545;-64
2024/03/28 07:20:54;;;;;;;;;0.00;0.00;;;;;;;;5097722;27;45352;-64
2024/03/28 07:23:19;;;;;;;;;0.67;0.00;;;;;;;;5089577;27;45454;-64
2024/03/28 07:25:44;;;;;;;;;0.00;0.00;;;;;;;;5099862;27;46294;-64
2024/03/28 07:28:09;;;;;;;;;0.00;0.00;;;;;;;;5099692;27;45335;-64
2024/03/28 07:30:35;;;;;;;;;0.00;0.00;;;;;;;;5095473;27;45376;-59
2024/03/28 07:33:00;;;;;;;;;0.00;0.00;;;;;;;;5091739;27;45444;-59
2024/03/28 07:35:26;;;;;;;;;0.00;0.00;;;;;;;;5098075;27;45584;-59
2024/03/28 07:37:51;;;;;;;;;0.00;0.00;;;;;;;;5100101;27;45417;-59
2024/03/28 07:40:17;;;;;;;;;0.00;0.00;;;;;;;;5087605;27;45284;-59
2024/03/28 07:42:42;;;;;;;;;0.00;0.00;;;;;;;;5100216;27;45216;-59
2024/03/28 07:45:07;;;;;;;;;2.00;0.00;;;;;;;;5095106;27;45456;-59
2024/03/28 07:47:32;;;;;;;;;0.00;0.00;;;;;;;;5093321;27;45203;-60
2024/03/28 07:49:58;;;;;;;;;0.00;0.00;;;;;;;;5084399;27;45326;-60
2024/03/28 07:52:23;;;;;;;;;1.33;0.00;;;;;;;;5081694;27;45370;-59
2024/03/28 07:54:48;;;;;;;;;1.00;0.00;;;;;;;;5083552;27;45399;-60
2024/03/28 07:57:14;;;;;;;;;0.00;0.00;;;;;;;;5092152;27;45387;-59
2024/03/28 07:59:39;;;;;;;;;0.00;0.00;;;;;;;;5099547;27;45374;-59
2024/03/28 08:02:04;;;;;;;;;0.00;0.00;;;;;;;;5099479;27;45433;-59
2024/03/28 08:04:30;;;;;;;;;0.00;0.00;;;;;;;;5099091;27;46607;-59
2024/03/28 08:06:55;;;;;;;;;0.00;0.00;;;;;;;;5099598;27;45717;-60
2024/03/28 08:09:20;;;;;;;;;0.67;0.00;;;;;;;;5099158;27;45434;-59
2024/03/28 08:11:46;;;;;;;;;1.00;0.00;;;;;;;;5089255;27;45681;-59
2024/03/28 08:14:11;;;;;;;;;0.00;0.00;;;;;;;;5097375;27;45264;-59
2024/03/28 08:16:37;;;;;;;;;0.00;0.00;;;;;;;;5099894;27;45373;-59
2024/03/28 08:19:02;;;;;;;;;0.00;0.00;;;;;;;;5099340;27;45319;-59
2024/03/28 08:21:27;;;;;;;;;0.00;0.00;;;;;;;;5078942;27;45628;-59
2024/03/28 08:23:52;;;;;;;;;0.00;0.00;;;;;;;;5099162;27;45475;-60
2024/03/28 08:26:19;;;;;;;;;0.00;0.00;;;;;;;;5099326;27;45405;-59
2024/03/28 08:28:44;;;;;;;;;0.00;0.00;;;;;;;;5099466;27;45437;-60
2024/03/28 08:31:10;;;;;;;;;2.00;0.00;;;;;;;;5099158;27;45442;-60
2024/03/28 08:33:35;;;;;;;;;2.00;0.00;;;;;;;;5087476;27;45393;-59
2024/03/28 08:36:01;;;;;;;;;0.00;0.00;;;;;;;;5099470;27;45314;-60
2024/03/28 08:38:26;;;;;;;;;0.00;0.00;;;;;;;;5098964;27;45460;-59
2024/03/28 08:40:51;;;;;;;;;0.00;0.00;;;;;;;;5091926;27;45228;-60
2024/03/28 08:43:16;;;;;;;;;1.00;0.00;;;;;;;;5097676;27;45790;-60
2024/03/28 08:45:42;;;;;;;;;0.33;0.00;;;;;;;;5086199;27;45228;-60
2024/03/28 08:48:08;;;;;;;;;0.00;0.00;;;;;;;;5091110;27;45251;-60
2024/03/28 08:50:34;;;;;;;;;1.00;1.00;;;;;;;;5094390;27;45406;-60
2024/03/28 08:53:00;;;;;;;;;0.00;0.00;;;;;;;;5098062;27;46474;-60
2024/03/28 08:55:25;;;;;;;;;0.00;0.00;;;;;;;;5083607;27;45337;-59
2024/03/28 08:57:51;;;;;;;;;0.00;0.00;;;;;;;;5098163;27;45340;-60
2024/03/28 09:00:19;;;;;;;;;0.00;0.00;;;;;;;;5084013;27;45434;-59
2024/03/28 09:02:44;;;;;;;;;0.00;0.00;;;;;;;;5099277;27;46670;-60
2024/03/28 09:05:09;;;;;;;;;0.00;0.00;;;;;;;;5102323;27;45437;-60
2024/03/28 09:07:36;;;;;;;;;0.00;0.00;;;;;;;;5102781;27;45939;-59
2024/03/28 09:10:04;;;;;;;;;0.33;0.00;;;;;;;;5102843;27;45400;-59
2024/03/28 09:12:32;;;;;;;;;0.00;0.00;;;;;;;;5102352;27;46649;-59
2024/03/28 09:14:57;;;;;;;;;0.00;0.00;;;;;;;;5102566;27;45379;-59
2024/03/28 09:17:22;;;;;;;;;0.33;0.00;;;;;;;;5102012;27;45247;-61
2024/03/28 09:19:54;;;;;;;;;0.00;0.00;;;;;;;;5102364;27;45370;-59
2024/03/28 09:22:22;;;;;;;;;0.00;0.00;;;;;;;;5097455;27;46360;-59
2024/03/28 09:24:47;;;;;;;;;0.00;0.00;;;;;;;;5094339;27;45306;-62
2024/03/28 09:27:12;;;;;;;;;0.00;0.00;;;;;;;;5102137;27;45455;-60
2024/03/28 09:29:37;;;;;;;;;0.67;0.00;;;;;;;;5102130;27;45305;-59
2024/03/28 09:32:03;;;;;;;;;0.00;0.00;;;;;;;;5101659;27;45561;-60
2024/03/28 09:34:28;;;;;;;;;2.00;0.00;;;;;;;;5102147;27;45377;-60
2024/03/28 09:36:53;;;;;;;;;0.00;0.00;;;;;;;;5102136;27;45240;-60
2024/03/28 09:39:19;;;;;;;;;0.00;0.00;;;;;;;;5101602;27;45762;-60
2024/03/28 09:41:45;;;;;;;;;0.67;0.00;;;;;;;;5101731;27;45981;-60
2024/03/28 09:44:18;;;;;;;;;1.00;0.00;;;;;;;;5101606;27;45244;-60
2024/03/28 09:46:45;;;;;;;;;2.67;0.00;;;;;;;;5101973;27;45495;-60
2024/03/28 09:49:11;;;;;;;;;3.67;0.00;;;;;;;;5101837;27;45612;-60
2024/03/28 09:51:38;;;;;;;;;0.00;0.00;;;;;;;;5098229;27;46867;-60
2024/03/28 09:54:05;;;;;;;;;0.25;0.00;;;;;;;;5083845;27;45758;-60
2024/03/28 09:56:30;;;;;;;;;0.00;0.00;;;;;;;;5091254;27;45371;-60
2024/03/28 09:58:56;;;;;;;;;0.00;0.00;;;;;;;;5101912;27;45591;-60
2024/03/28 10:01:22;;;;;;;;;0.25;0.00;;;;;;;;5101252;27;45430;-60
2024/03/28 10:04:13;;;;;;;;;0.00;0.00;;;;;;;;5091542;27;45507;-60
2024/03/28 10:06:55;;;;;;;;;0.00;0.00;;;;;;;;5082137;27;45513;-60
2024/03/28 10:09:22;;;;;;;;;0.00;0.00;;;;;;;;5069441;27;45481;-60
2024/03/28 10:11:48;;;;;;;;;0.00;0.00;;;;;;;;5097750;27;45671;-60
2024/03/28 10:14:18;;;;;;;;;0.00;0.00;;;;;;;;5089893;27;45375;-59
2024/03/28 10:16:48;;;;;;;;;0.00;0.00;;;;;;;;5096023;27;45327;-60
2024/03/28 10:19:14;;;;;;;;;1.33;0.00;;;;;;;;5089024;27;45482;-59
2024/03/28 10:21:39;;;;;;;;;0.00;0.00;;;;;;;;5087618;27;45204;-59
2024/03/28 10:24:05;;;;;;;;;0.00;0.00;;;;;;;;5092257;27;45401;-60
2024/03/28 10:26:33;;;;;;;;;0.00;0.00;;;;;;;;5093299;27;45393;-60
2024/03/28 10:28:59;;;;;;;;;0.75;0.00;;;;;;;;5101024;27;45897;-59
2024/03/28 10:31:25;;;;;;;;;1.00;0.00;;;;;;;;5081974;27;45540;-60
2024/03/28 10:33:52;;;;;;;;;0.00;0.00;;;;;;;;5090449;27;45212;-60
2024/03/28 10:36:24;;;;;;;;;1.25;0.00;;;;;;;;5096765;27;45490;-60
2024/03/28 10:38:50;;;;;;;;;0.75;0.00;;;;;;;;5095368;27;45294;-60
2024/03/28 10:41:15;;;;;;;;;0.00;0.00;;;;;;;;5088940;27;46016;-60
2024/03/28 10:43:42;;;;;;;;;1.00;0.00;;;;;;;;5077420;28;45174;-60
2024/03/28 10:46:12;;;;;;;;;2.67;0.00;;;;;;;;5079779;27;45438;-60
2024/03/28 10:48:39;;;;;;;;;0.00;0.00;;;;;;;;5086422;27;45623;-60
2024/03/28 10:51:05;;;;;;;;;0.00;0.00;;;;;;;;5090923;27;46452;-60
2024/03/28 10:53:36;;;;;;;;;3.00;0.00;;;;;;;;5093203;27;45269;-60
2024/03/28 10:56:12;;;;;;;;;0.00;0.00;;;;;;;;5092705;27;45744;-60
2024/03/28 10:58:37;;;;;;;;;0.00;0.00;;;;;;;;5092525;27;45465;-60
2024/03/28 11:01:03;;;;;;;;;0.00;0.00;;;;;;;;5090460;27;46123;-60
2024/03/28 11:03:30;;;;;;;;;2.67;0.00;;;;;;;;5093705;27;45366;-60
2024/03/28 11:05:58;;;;;;;;;0.25;0.00;;;;;;;;5100911;27;45459;-60
2024/03/28 11:08:24;;;;;;;;;0.00;0.00;;;;;;;;5081988;27;45482;-60
2024/03/28 11:10:49;;;;;;;;;1.00;1.00;;;;;;;;5097187;27;45341;-63
2024/03/28 11:13:14;;;;;;;;;0.00;0.00;;;;;;;;5090510;27;45313;-60
2024/03/28 11:15:40;;;;;;;;;2.67;0.67;;;;;;;;5100463;27;45286;-60
2024/03/28 11:18:05;;;;;;;;;1.50;0.00;;;;;;;;5100439;27;45444;-60
2024/03/28 11:20:30;;;;;;;;;0.00;0.00;;;;;;;;5100552;27;46501;-60
2024/03/28 11:23:02;;;;;;;;;0.00;0.00;;;;;;;;5100750;27;45304;-60
2024/03/28 11:25:28;;;;;;;;;1.25;0.00;;;;;;;;5100318;27;45224;-60
2024/03/28 11:28:02;;;;;;;;;1.25;0.00;;;;;;;;5100597;27;45587;-60
2024/03/28 11:30:27;;;;;;;;;1.00;0.00;;;;;;;;5096362;27;46619;-60
2024/03/28 11:33:01;;;;;;;;;0.00;0.00;;;;;;;;5093274;27;45402;-60
2024/03/28 11:35:27;;;;;;;;;2.00;0.00;;;;;;;;5099816;27;45153;-60
2024/03/28 11:38:00;;;;;;;;;0.00;0.00;;;;;;;;5100256;27;45276;-60
2024/03/28 11:40:25;;;;;;;;;0.67;0.67;;;;;;;;5087651;27;45466;-60
2024/03/28 11:42:51;;;;;;;;;0.00;0.00;;;;;;;;5099891;27;45459;-60
2024/03/28 11:45:16;;;;;;;;;0.00;0.00;;;;;;;;5100128;27;45636;-60
2024/03/28 11:47:41;;;;;;;;;0.00;0.00;;;;;;;;5096980;27;45856;-60
2024/03/28 11:50:11;;;;;;;;;0.00;0.00;;;;;;;;5099795;27;45613;-60
2024/03/28 11:52:37;;;;;;;;;0.00;0.00;;;;;;;;5099707;27;45371;-60
2024/03/28 11:55:03;;;;;;;;;1.00;0.00;;;;;;;;5099531;27;45567;-60
2024/03/28 11:57:28;;;;;;;;;2.33;0.00;;;;;;;;5098471;27;45390;-60
2024/03/28 12:00:04;;;;;;;;;1.33;1.00;;;;;;;;5099522;27;45563;-60
2024/03/28 12:02:30;;;;;;;;;0.75;0.00;;;;;;;;5099851;27;45445;-60
2024/03/28 12:05:01;;;;;;;;;1.00;0.00;;;;;;;;5099922;27;45350;-60
2024/03/28 12:07:26;;;;;;;;;0.00;0.00;;;;;;;;5099427;27;45335;-60
2024/03/28 12:09:51;;;;;;;;;0.00;0.00;;;;;;;;5099635;27;45906;-60
2024/03/28 12:12:17;;;;;;;;;0.00;0.00;;;;;;;;5099185;27;45338;-60
2024/03/28 12:14:42;;;;;;;;;2.25;0.00;;;;;;;;5096188;27;45489;-60
2024/03/28 12:17:07;;;;;;;;;0.75;0.25;;;;;;;;5098334;27;45320;-60
2024/03/28 12:19:32;;;;;;;;;0.00;0.00;;;;;;;;5099802;27;45665;-60
2024/03/28 12:22:03;;;;;;;;;0.00;0.00;;;;;;;;5098418;27;45419;-60
2024/03/28 12:24:29;;;;;;;;;0.00;0.00;;;;;;;;5098552;27;45289;-60
2024/03/28 12:26:56;;;;;;;;;0.00;0.00;;;;;;;;5080473;27;45373;-60
2024/03/28 12:29:25;;;;;;;;;0.00;0.00;;;;;;;;5097783;27;45563;-60
2024/03/28 12:31:51;;;;;;;;;0.00;0.00;;;;;;;;5081237;27;45412;-59
2024/03/28 12:34:16;;;;;;;;;0.50;0.00;;;;;;;;5099064;27;45274;-60
2024/03/28 12:36:41;;;;;;;;;1.00;0.33;;;;;;;;5099107;27;45642;-60
2024/03/28 12:39:09;;;;;;;;;0.00;0.00;;;;;;;;5094612;27;46114;-59
2024/03/28 12:41:34;;;;;;;;;0.67;0.00;;;;;;;;5095543;27;45271;-60
2024/03/28 12:44:03;;;;;;;;;1.00;0.00;;;;;;;;5095707;27;45270;-59
2024/03/28 12:46:28;;;;;;;;;0.00;0.00;;;;;;;;5098731;27;45433;-59
2024/03/28 12:48:53;;;;;;;;;0.00;0.00;;;;;;;;5098710;27;45298;-59
2024/03/28 12:51:19;;;;;;;;;0.00;0.00;;;;;;;;5095553;27;45354;-59
2024/03/28 12:53:44;;;;;;;;;0.67;0.67;;;;;;;;5099156;27;45402;-62
2024/03/28 12:56:09;;;;;;;;;0.00;0.00;;;;;;;;5080450;27;45414;-60
2024/03/28 12:58:35;;;;;;;;;0.00;0.00;;;;;;;;5098948;27;45500;-60
2024/03/28 13:01:01;;;;;;;;;0.33;0.00;;;;;;;;5092034;27;45330;-60
2024/03/28 13:03:26;;;;;;;;;1.00;0.00;;;;;;;;5098805;27;45371;-59
2024/03/28 13:05:55;;;;;;;;;0.33;0.00;;;;;;;;5094919;27;45438;-60
2024/03/28 13:08:21;;;;;;;;;0.00;0.00;;;;;;;;5087075;27;45409;-59
2024/03/28 13:10:47;;;;;;;;;0.00;0.00;;;;;;;;5078173;27;45465;-59
2024/03/28 13:13:12;;;;;;;;;1.00;0.00;;;;;;;;5094613;27;45301;-59
2024/03/28 13:15:37;;;;;;;;;3.00;0.67;;;;;;;;5090359;27;45274;-59
2024/03/28 13:18:02;;;;;;;;;0.00;0.00;;;;;;;;5098537;27;46540;-60
2024/03/28 13:20:28;;;;;;;;;0.00;0.00;;;;;;;;5090444;27;45419;-59
2024/03/28 13:22:53;;;;;;;;;0.00;0.00;;;;;;;;5090804;27;45344;-60
2024/03/28 13:25:18;;;;;;;;;0.67;0.00;;;;;;;;5094336;27;45236;-60
2024/03/28 13:27:43;;;;;;;;;0.00;0.00;;;;;;;;5101459;27;45385;-59
2024/03/28 13:30:09;;;;;;;;;3.00;0.00;;;;;;;;5101284;27;45488;-60
2024/03/28 13:32:34;;;;;;;;;0.00;0.00;;;;;;;;5102588;27;45382;-60
2024/03/28 13:34:59;;;;;;;;;1.67;0.00;;;;;;;;5098824;27;45501;-59
2024/03/28 13:37:24;;;;;;;;;1.00;0.00;;;;;;;;5101739;27;45409;-59
2024/03/28 13:39:49;;;;;;;;;0.00;0.00;;;;;;;;5098153;27;45458;-59
2024/03/28 13:42:15;;;;;;;;;0.67;0.00;;;;;;;;5101817;27;45479;-59
2024/03/28 13:44:40;;;;;;;;;0.00;0.00;;;;;;;;5094485;27;45573;-59
2024/03/28 13:47:10;;;;;;;;;0.00;0.00;;;;;;;;5097497;27;45491;-59
2024/03/28 13:49:35;;;;;;;;;0.33;0.00;;;;;;;;5098227;27;45248;-59
2024/03/28 13:52:00;;;;;;;;;0.00;0.00;;;;;;;;5102241;27;45787;-59
2024/03/28 13:54:26;;;;;;;;;0.00;0.00;;;;;;;;5098049;27;45356;-59
2024/03/28 13:56:51;;;;;;;;;0.00;0.00;;;;;;;;5102155;27;47007;-59
2024/03/28 13:59:16;;;;;;;;;0.00;0.00;;;;;;;;5094737;27;45358;-59
2024/03/28 14:01:42;;;;;;;;;0.67;0.00;;;;;;;;5102046;27;45659;-60
2024/03/28 14:04:08;;;;;;;;;0.00;0.00;;;;;;;;5095512;27;45519;-60
2024/03/28 14:06:36;;;;;;;;;0.00;0.00;;;;;;;;5101650;27;45309;-59
2024/03/28 14:09:02;;;;;;;;;1.00;0.00;;;;;;;;5095832;27;46087;-59
2024/03/28 14:11:27;;;;;;;;;0.67;0.00;;;;;;;;5101951;27;45394;-59
2024/03/28 14:13:53;;;;;;;;;1.00;0.00;;;;;;;;5091452;27;45283;-59
2024/03/28 14:16:18;;;;;;;;;0.00;0.00;;;;;;;;5101212;27;45691;-61
2024/03/28 14:18:43;;;;;;;;;1.00;0.00;;;;;;;;5101589;27;45165;-59
2024/03/28 14:21:09;;;;;;;;;0.33;0.00;;;;;;;;5096361;27;45339;-59
2024/03/28 14:23:35;;;;;;;;;1.00;0.00;;;;;;;;5094383;27;45421;-59
2024/03/28 14:26:04;;;;;;;;;0.00;0.00;;;;;;;;5095860;27;45443;-59
2024/03/28 14:28:29;;;;;;;;;1.00;0.00;;;;;;;;5095723;27;45476;-59
2024/03/28 14:30:54;;;;;;;;;0.00;0.00;;;;;;;;5101220;27;45336;-59
2024/03/28 14:33:20;;;;;;;;;0.00;0.00;;;;;;;;5091229;27;45357;-59
2024/03/28 14:35:45;;;;;;;;;0.33;0.00;;;;;;;;5096359;27;45521;-59
2024/03/28 14:38:10;;;;;;;;;2.00;2.00;;;;;;;;5094635;27;45302;-59
2024/03/28 14:40:36;;;;;;;;;3.67;3.33;;;;;;;;5101238;27;45480;-59